Time;durP1;ratioP1;P1;durP2;ratioP2;P2;SDS_P1;SDS_P2;PMS_P1;PMS_P2;Temp;Humidity;BMP_temperature;BMP_pressure;BME280_temperature;BME280_humidity;BME280_pressure;Samples;Min_cycle;Max_cycle;Signal;HPM_P1;HPM_P2
2023/12/17 00:01:46;;;;;;;6.40;3.97;;;;;;;24.53;33.85;101723.56;4991848;28;20022;-47
2023/12/17 00:04:11;;;;;;;6.25;4.05;;;;;;;24.51;33.92;101723.22;4990811;28;20032;-47
2023/12/17 00:06:37;;;;;;;5.80;3.95;;;;;;;24.52;33.88;101713.72;4985175;28;20500;-47
2023/12/17 00:09:03;;;;;;;6.20;3.80;;;;;;;24.49;33.77;101714.63;4991917;28;20026;-46
2023/12/17 00:11:29;;;;;;;5.82;3.70;;;;;;;24.46;34.05;101710.75;4994258;28;20030;-48
2023/12/17 00:13:54;;;;;;;5.90;3.83;;;;;;;24.46;33.90;101719.03;4995983;28;20591;-50
2023/12/17 00:16:19;;;;;;;6.45;3.72;;;;;;;24.48;33.91;101727.63;4993940;28;20478;-50
2023/12/17 00:18:45;;;;;;;5.80;3.42;;;;;;;24.47;33.82;101725.31;4992628;28;20057;-47
2023/12/17 00:21:10;;;;;;;6.20;3.75;;;;;;;24.49;33.85;101723.66;4989858;28;20026;-50
2023/12/17 00:23:36;;;;;;;5.50;3.35;;;;;;;24.41;34.04;101716.03;4995261;28;20021;-46
2023/12/17 00:26:01;;;;;;;5.75;3.60;;;;;;;24.43;34.02;101713.59;4992534;28;20027;-48
2023/12/17 00:28:27;;;;;;;5.60;3.58;;;;;;;24.45;33.99;101711.94;4991937;28;20485;-47
2023/12/17 00:30:52;;;;;;;5.90;3.40;;;;;;;24.48;33.74;101715.81;4990873;28;20031;-49
2023/12/17 00:33:17;;;;;;;6.10;3.72;;;;;;;24.46;33.76;101721.00;4991334;28;20018;-48
2023/12/17 00:35:43;;;;;;;5.68;3.38;;;;;;;24.45;33.94;101727.75;4994788;28;20021;-47
2023/12/17 00:38:08;;;;;;;5.65;3.47;;;;;;;24.46;33.84;101723.78;4995169;28;20032;-47
2023/12/17 00:40:34;;;;;;;5.88;3.70;;;;;;;24.46;33.79;101721.78;4984656;28;20021;-48
2023/12/17 00:42:59;;;;;;;5.90;3.50;;;;;;;24.47;33.78;101719.78;4987351;28;20034;-46
2023/12/17 00:45:24;;;;;;;5.35;3.25;;;;;;;24.43;33.81;101724.66;4989818;28;20029;-48
2023/12/17 00:47:50;;;;;;;5.70;3.58;;;;;;;24.47;33.84;101730.84;4995944;28;20022;-47
2023/12/17 00:50:15;;;;;;;5.20;3.22;;;;;;;24.46;33.75;101726.53;4991312;28;20371;-47
2023/12/17 00:52:40;;;;;;;5.72;3.50;;;;;;;24.48;33.73;101726.88;4989622;28;20022;-48
2023/12/17 00:55:06;;;;;;;5.38;3.05;;;;;;;24.43;33.83;101741.97;4984714;28;20028;-47
2023/12/17 00:57:32;;;;;;;5.13;2.97;;;;;;;24.41;33.76;101749.16;4987392;28;20032;-47
2023/12/17 00:59:58;;;;;;;5.30;3.10;;;;;;;24.43;33.80;101752.25;4998900;28;20019;-46
2023/12/17 01:02:23;;;;;;;5.13;3.10;;;;;;;24.44;33.73;101748.28;4987513;28;20018;-46
2023/12/17 01:04:49;;;;;;;4.95;2.95;;;;;;;24.39;33.77;101753.13;4992002;28;20444;-50
2023/12/17 01:07:14;;;;;;;5.22;3.00;;;;;;;24.40;33.78;101767.69;4986689;28;20036;-46
2023/12/17 01:09:39;;;;;;;5.00;2.80;;;;;;;24.38;33.95;101762.63;4983230;28;20025;-47
2023/12/17 01:12:05;;;;;;;5.78;3.28;;;;;;;24.36;33.83;101765.06;4994817;28;20021;-49
2023/12/17 01:14:34;;;;;;;5.03;2.75;;;;;;;24.36;33.92;101762.31;4991170;28;20030;-47
2023/12/17 01:17:02;;;;;;;5.07;2.90;;;;;;;24.38;33.87;101772.88;4988071;28;20026;-47
2023/12/17 01:19:28;;;;;;;5.20;2.72;;;;;;;24.39;33.80;101775.19;4990357;28;20106;-46
2023/12/17 01:21:53;;;;;;;5.50;2.70;;;;;;;24.34;33.79;101777.75;4988207;28;20022;-47
2023/12/17 01:24:19;;;;;;;4.95;2.60;;;;;;;24.35;33.75;101780.06;4984642;28;20400;-46
2023/12/17 01:26:44;;;;;;;5.10;2.80;;;;;;;24.38;33.83;101770.91;4991600;28;20040;-47
2023/12/17 01:29:09;;;;;;;5.05;2.70;;;;;;;24.37;33.60;101772.13;4995320;28;20030;-48
2023/12/17 01:31:35;;;;;;;5.30;2.63;;;;;;;24.38;33.84;101768.13;4988785;28;20969;-46
2023/12/17 01:34:00;;;;;;;4.93;2.60;;;;;;;24.36;33.90;101770.59;4983606;28;20027;-46
2023/12/17 01:36:25;;;;;;;4.90;2.60;;;;;;;24.34;33.74;101773.00;4985411;28;20021;-47
2023/12/17 01:38:51;;;;;;;5.60;2.70;;;;;;;24.38;33.74;101770.91;4986773;28;20030;-46
2023/12/17 01:41:16;;;;;;;4.93;2.60;;;;;;;24.37;33.70;101774.91;4996782;28;20029;-48
2023/12/17 01:43:42;;;;;;;4.65;2.55;;;;;;;24.38;33.70;101773.66;4989315;28;20110;-47
2023/12/17 01:46:07;;;;;;;4.70;2.50;;;;;;;24.36;33.72;101776.09;4989340;28;20034;-46
2023/12/17 01:48:32;;;;;;;5.10;2.70;;;;;;;24.34;33.86;101772.22;4994373;28;20028;-51
2023/12/17 01:50:58;;;;;;;4.63;2.40;;;;;;;24.36;33.77;101781.63;5004138;28;20030;-47
2023/12/17 01:53:23;;;;;;;5.18;2.60;;;;;;;24.36;33.76;101778.88;4991245;28;20389;-47
2023/12/17 01:55:49;;;;;;;4.32;2.47;;;;;;;24.31;33.90;101784.91;4986775;28;20048;-46
2023/12/17 01:58:14;;;;;;;4.78;2.50;;;;;;;24.31;33.77;101789.66;4989107;28;20386;-47
2023/12/17 02:00:40;;;;;;;4.05;2.25;;;;;;;24.31;33.72;101782.16;4989889;28;20497;-50
2023/12/17 02:03:05;;;;;;;4.35;2.22;;;;;;;24.29;33.88;101781.81;4989255;28;20026;-50
2023/12/17 02:05:34;;;;;;;4.63;2.40;;;;;;;24.30;33.86;101783.38;4997501;28;20030;-46
2023/12/17 02:08:00;;;;;;;4.40;2.40;;;;;;;24.30;33.71;101788.88;4993948;28;20079;-46
2023/12/17 02:10:25;;;;;;;4.70;2.50;;;;;;;24.30;33.86;101783.38;4997521;28;20463;-46
2023/12/17 02:12:51;;;;;;;4.78;2.60;;;;;;;24.27;33.70;101787.00;4989586;28;20030;-49
2023/12/17 02:15:16;;;;;;;4.93;2.80;;;;;;;24.29;33.97;101792.09;4987127;28;20028;-47
2023/12/17 02:17:41;;;;;;;4.80;2.25;;;;;;;24.28;33.49;101788.56;4986902;28;20022;-48
2023/12/17 02:20:07;;;;;;;4.80;2.35;;;;;;;24.29;33.70;101783.81;4985998;28;20026;-47
2023/12/17 02:22:33;;;;;;;4.35;2.28;;;;;;;24.29;33.67;101787.34;4984087;28;20217;-46
2023/12/17 02:24:58;;;;;;;4.43;2.33;;;;;;;24.29;33.81;101784.56;4989463;28;20583;-46
2023/12/17 02:27:24;;;;;;;4.40;2.30;;;;;;;24.32;33.65;101788.44;4993596;28;20037;-48
2023/12/17 02:29:50;;;;;;;4.43;2.20;;;;;;;24.33;33.66;101784.47;4990977;28;20034;-46
2023/12/17 02:32:16;;;;;;;4.63;2.35;;;;;;;24.31;33.67;101784.91;4988338;28;20370;-48
2023/12/17 02:34:42;;;;;;;4.72;2.38;;;;;;;24.30;33.63;101777.84;4992453;28;20057;-46
2023/12/17 02:37:07;;;;;;;4.60;2.38;;;;;;;24.33;33.60;101782.50;4986336;28;20500;-46
2023/12/17 02:39:32;;;;;;;4.50;2.35;;;;;;;24.29;33.44;101781.81;4988661;28;20090;-47
2023/12/17 02:41:58;;;;;;;4.28;2.17;;;;;;;24.32;33.62;101786.47;4990668;28;20478;-47
2023/12/17 02:44:24;;;;;;;4.40;2.17;;;;;;;24.32;33.59;101783.72;4991168;28;20072;-46
2023/12/17 02:46:49;;;;;;;4.38;2.10;;;;;;;24.33;33.48;101787.25;4987023;28;20026;-46
2023/12/17 02:49:15;;;;;;;4.03;2.00;;;;;;;24.31;33.69;101784.91;4992298;28;20101;-46
2023/12/17 02:51:40;;;;;;;3.95;2.15;;;;;;;24.29;33.61;101786.56;4989147;28;20023;-50
2023/12/17 02:54:05;;;;;;;4.30;2.22;;;;;;;24.27;33.50;101794.50;4997490;28;20083;-46
2023/12/17 02:56:31;;;;;;;3.90;2.00;;;;;;;24.28;33.54;101796.81;4996606;28;20492;-46
2023/12/17 02:58:57;;;;;;;3.90;1.90;;;;;;;24.29;33.70;101797.59;4978090;28;20109;-45
2023/12/17 03:01:22;;;;;;;3.85;2.00;;;;;;;24.27;33.64;101805.53;4988769;28;20023;-46
2023/12/17 03:03:47;;;;;;;4.30;2.08;;;;;;;24.29;33.60;101803.91;4989338;28;20392;-46
2023/12/17 03:06:13;;;;;;;4.43;2.03;;;;;;;24.30;33.63;101799.16;4992884;28;20026;-47
2023/12/17 03:08:38;;;;;;;4.00;1.90;;;;;;;24.31;33.61;101792.41;4993687;28;20026;-48
2023/12/17 03:11:03;;;;;;;3.80;1.80;;;;;;;24.29;33.60;101787.34;4989496;28;20025;-49
2023/12/17 03:13:30;;;;;;;4.20;2.22;;;;;;;24.31;33.66;101795.97;4988843;28;20437;-46
2023/12/17 03:15:55;;;;;;;4.30;2.20;;;;;;;24.30;33.54;101788.88;4991360;28;20026;-47
2023/12/17 03:18:20;;;;;;;4.30;2.00;;;;;;;24.29;33.55;101787.34;4995151;28;20017;-46
2023/12/17 03:20:46;;;;;;;3.53;1.88;;;;;;;24.32;33.71;101777.41;4990077;28;20367;-46
2023/12/17 03:23:11;;;;;;;4.20;2.17;;;;;;;24.33;33.63;101785.25;4990961;28;20032;-46
2023/12/17 03:25:37;;;;;;;5.00;1.90;;;;;;;24.39;33.57;101779.94;4988365;28;20522;-46
2023/12/17 03:28:02;;;;;;;4.30;2.00;;;;;;;24.37;33.51;101774.13;4991013;28;20022;-49
2023/12/17 03:30:27;;;;;;;3.72;1.80;;;;;;;24.38;33.56;101768.13;4997161;28;20026;-46
2023/12/17 03:32:53;;;;;;;4.43;2.00;;;;;;;24.41;33.42;101763.72;4993212;28;20038;-48
2023/12/17 03:35:18;;;;;;;4.10;1.98;;;;;;;24.44;33.56;101762.06;4990793;28;20033;-46
2023/12/17 03:37:43;;;;;;;3.53;1.65;;;;;;;24.43;33.52;101755.00;4990328;28;20038;-49
2023/12/17 03:40:09;;;;;;;4.05;1.90;;;;;;;24.43;33.47;101755.00;4985451;28;20038;-47
2023/12/17 03:42:34;;;;;;;4.07;1.80;;;;;;;24.44;33.44;101748.28;4993246;28;20030;-47
2023/12/17 03:45:01;;;;;;;3.47;1.70;;;;;;;24.44;33.50;101748.28;4994488;28;20030;-48
2023/12/17 03:47:32;;;;;;;4.30;1.85;;;;;;;24.45;33.46;101738.78;4990377;28;20022;-47
2023/12/17 03:49:58;;;;;;;3.35;1.70;;;;;;;24.46;33.46;101734.81;4980255;28;20034;-46
2023/12/17 03:52:23;;;;;;;3.90;1.77;;;;;;;24.46;33.50;101724.53;4986761;28;20050;-47
2023/12/17 03:54:49;;;;;;;3.42;1.80;;;;;;;24.43;33.54;101719.13;4993045;28;20034;-47
2023/12/17 03:57:14;;;;;;;3.70;1.90;;;;;;;24.38;33.52;101712.16;4988556;28;20080;-47
2023/12/17 03:59:39;;;;;;;4.07;1.88;;;;;;;24.37;33.34;101711.41;4992285;28;20026;-49
2023/12/17 04:02:05;;;;;;;4.05;1.88;;;;;;;24.33;33.22;101704.44;4989133;28;20475;-51
2023/12/17 04:04:30;;;;;;;3.92;1.80;;;;;;;24.32;33.24;101702.91;4985482;28;20088;-46
2023/12/17 04:06:55;;;;;;;3.70;1.80;;;;;;;24.34;33.28;101700.47;4986487;28;20080;-47
2023/12/17 04:09:21;;;;;;;3.70;1.67;;;;;;;24.34;33.10;101687.44;4994539;28;20040;-47
2023/12/17 04:11:46;;;;;;;3.78;1.60;;;;;;;24.39;33.25;101678.59;4994042;28;20818;-46
2023/12/17 04:14:12;;;;;;;4.10;1.80;;;;;;;24.37;32.94;101683.81;4988911;28;20030;-46
2023/12/17 04:16:37;;;;;;;4.30;1.90;;;;;;;24.41;33.18;101683.69;4985406;28;20414;-46
2023/12/17 04:19:03;;;;;;;4.85;1.70;;;;;;;24.46;33.04;101685.13;4985418;28;20079;-46
2023/12/17 04:21:28;;;;;;;4.05;1.60;;;;;;;24.47;33.14;101683.91;4991697;28;20362;-46
2023/12/17 04:23:54;;;;;;;4.22;1.85;;;;;;;24.45;33.05;101678.06;4993468;28;20021;-47
2023/12/17 04:26:19;;;;;;;4.82;1.90;;;;;;;24.43;33.22;101686.00;4992746;28;20029;-47
2023/12/17 04:28:45;;;;;;;3.80;1.80;;;;;;;24.45;33.10;101678.06;4987460;28;20058;-49
2023/12/17 04:31:10;;;;;;;3.25;1.63;;;;;;;24.44;33.24;101679.25;4990156;28;20032;-46
2023/12/17 04:33:35;;;;;;;3.83;1.88;;;;;;;24.45;33.24;101678.81;4990560;28;20478;-46
2023/12/17 04:36:01;;;;;;;4.63;1.60;;;;;;;24.48;33.22;101682.69;4993833;28;20034;-46
2023/12/17 04:38:26;;;;;;;3.70;1.70;;;;;;;24.48;33.01;101686.22;4990179;28;20032;-52
2023/12/17 04:40:51;;;;;;;4.75;1.80;;;;;;;24.48;33.16;101688.22;4986582;28;20492;-48
2023/12/17 04:43:17;;;;;;;3.75;1.60;;;;;;;24.49;33.22;101689.75;4990874;28;20056;-51
2023/12/17 04:45:42;;;;;;;4.43;1.70;;;;;;;24.48;33.39;101702.78;4991709;28;20379;-47
2023/12/17 04:48:07;;;;;;;4.30;1.75;;;;;;;24.49;33.19;101711.84;4989841;28;20026;-48
2023/12/17 04:50:33;;;;;;;3.53;1.55;;;;;;;24.50;33.20;101707.88;4999118;28;20458;-47
2023/12/17 04:52:58;;;;;;;4.22;1.90;;;;;;;24.52;33.34;101713.72;4989161;28;20046;-49
2023/12/17 04:55:24;;;;;;;3.53;1.60;;;;;;;24.55;33.21;101716.38;4991885;28;20063;-47
2023/12/17 04:57:49;;;;;;;4.38;1.60;;;;;;;24.57;33.20;101716.72;4995937;28;20121;-48
2023/12/17 05:00:15;;;;;;;5.95;1.73;;;;;;;24.59;33.35;101716.25;4988216;28;20030;-48
2023/12/17 05:02:40;;;;;;;5.05;1.50;;;;;;;24.61;33.25;101717.38;4989408;28;20504;-51
2023/12/17 05:05:06;;;;;;;5.07;1.80;;;;;;;24.64;33.30;101718.47;4982618;28;20034;-47
2023/12/17 05:07:31;;;;;;;5.43;1.50;;;;;;;24.65;33.23;101717.25;4985737;28;20037;-47
2023/12/17 05:09:57;;;;;;;5.00;1.60;;;;;;;24.65;33.33;101714.50;4996049;28;20456;-49
2023/12/17 05:12:22;;;;;;;6.97;1.67;;;;;;;24.67;33.34;101712.06;4992488;28;20026;-46
2023/12/17 05:14:48;;;;;;;3.63;1.70;;;;;;;24.70;33.43;101709.22;4990564;28;20084;-46
2023/12/17 05:17:13;;;;;;;4.30;1.50;;;;;;;24.71;33.43;101708.00;4983241;28;20374;-50
2023/12/17 05:19:38;;;;;;;5.53;1.67;;;;;;;24.72;34.18;101703.25;4983309;28;20041;-48
2023/12/17 05:22:04;;;;;;;5.05;1.85;;;;;;;24.77;34.35;101708.22;4991090;28;20033;-46
2023/12/17 05:24:29;;;;;;;3.80;1.60;;;;;;;24.83;34.49;101709.19;4992201;28;20040;-50
2023/12/17 05:26:54;;;;;;;4.63;1.40;;;;;;;24.84;34.67;101699.69;4993063;28;20026;-45
2023/12/17 05:29:20;;;;;;;4.75;1.73;;;;;;;24.89;34.82;101701.13;4992225;28;20432;-50
2023/12/17 05:31:45;;;;;;;5.00;1.55;;;;;;;24.95;34.67;101694.63;4986379;28;20022;-48
2023/12/17 05:34:10;;;;;;;6.55;1.75;;;;;;;24.93;34.95;101699.78;4988751;28;20030;-49
2023/12/17 05:36:36;;;;;;;7.60;1.80;;;;;;;24.97;34.98;101692.19;4991791;28;20026;-47
2023/12/17 05:39:01;;;;;;;4.35;1.83;;;;;;;25.01;34.90;101695.59;4989372;28;20122;-48
2023/12/17 05:41:27;;;;;;;5.72;1.80;;;;;;;24.99;35.05;101686.97;4984052;28;20092;-47
2023/12/17 05:43:52;;;;;;;6.00;1.70;;;;;;;25.01;34.93;101686.53;4986473;28;20026;-49
2023/12/17 05:46:17;;;;;;;4.47;1.75;;;;;;;25.02;35.04;101677.81;4988635;28;20034;-45
2023/12/17 05:48:43;;;;;;;6.38;1.88;;;;;;;25.02;34.86;101666.75;4984555;28;20405;-45
2023/12/17 05:51:08;;;;;;;6.07;1.80;;;;;;;25.03;35.08;101676.59;4990780;28;20021;-44
2023/12/17 05:53:34;;;;;;;5.65;1.80;;;;;;;25.06;34.91;101670.16;4985141;28;20034;-45
2023/12/17 05:55:59;;;;;;;4.15;1.50;;;;;;;25.05;34.88;101665.09;4985067;28;20030;-45
2023/12/17 05:58:25;;;;;;;5.80;1.85;;;;;;;25.08;34.77;101663.44;4992448;28;20489;-58
2023/12/17 06:00:50;;;;;;;4.72;1.50;;;;;;;25.09;34.82;101662.22;4992339;28;20031;-47
2023/12/17 06:03:16;;;;;;;4.93;1.60;;;;;;;25.08;34.87;101668.94;4984371;28;20562;-48
2023/12/17 06:05:41;;;;;;;4.18;1.80;;;;;;;25.08;34.80;101663.44;4982656;28;20034;-54
2023/12/17 06:08:06;;;;;;;4.50;1.52;;;;;;;25.08;34.57;101655.91;4984955;28;20477;-46
2023/12/17 06:10:32;;;;;;;5.85;1.50;;;;;;;25.10;34.62;101652.69;4990188;28;20396;-47
2023/12/17 06:12:57;;;;;;;5.13;1.63;;;;;;;25.11;34.49;101657.00;4990120;28;20038;-46
2023/12/17 06:15:22;;;;;;;3.85;1.63;;;;;;;25.11;34.48;101651.50;4992716;28;20027;-45
2023/12/17 06:17:48;;;;;;;3.72;1.50;;;;;;;25.08;34.52;101652.38;4989330;28;20084;-45
2023/12/17 06:20:13;;;;;;;4.22;1.45;;;;;;;25.05;34.49;101652.03;4984545;28;20030;-49
2023/12/17 06:22:38;;;;;;;5.10;1.83;;;;;;;25.05;34.11;101654.03;4987621;28;20037;-48
2023/12/17 06:25:04;;;;;;;4.30;1.60;;;;;;;25.13;34.15;101654.56;4990941;28;20034;-47
2023/12/17 06:27:30;;;;;;;4.85;1.67;;;;;;;25.07;34.11;101657.13;4989357;28;20023;-48
2023/12/17 06:29:55;;;;;;;4.10;1.50;;;;;;;25.04;34.33;101666.31;4983985;28;20514;-45
2023/12/17 06:32:21;;;;;;;4.65;1.60;;;;;;;25.02;34.16;101675.03;4114619;28;10000992;-47
2023/12/17 06:34:46;;;;;;;3.75;1.50;;;;;;;25.03;34.53;101676.59;4987094;28;20029;-44
2023/12/17 06:37:12;;;;;;;8.93;1.70;;;;;;;24.99;34.58;101675.94;4116502;28;10000936;-51
2023/12/17 06:39:41;;;;;;;4.43;1.60;;;;;;;24.97;34.16;101677.63;4986634;28;20272;-47
2023/12/17 06:42:08;;;;;;;3.67;1.50;;;;;;;24.95;34.15;101678.06;4985073;28;20023;-49
2023/12/17 06:44:33;;;;;;;4.38;1.50;;;;;;;24.98;34.28;101679.91;4981662;28;20027;-46
2023/12/17 06:46:58;;;;;;;3.35;1.40;;;;;;;24.97;34.28;101683.91;4989024;28;20040;-46
2023/12/17 06:49:24;;;;;;;3.20;1.42;;;;;;;24.95;34.26;101691.88;4990249;28;20061;-50
2023/12/17 06:51:49;;;;;;;3.40;1.30;;;;;;;24.94;34.17;101687.56;4989704;28;20034;-48
2023/12/17 06:54:14;;;;;;;3.50;1.42;;;;;;;24.92;34.18;101697.47;4988787;28;20105;-45
2023/12/17 06:56:42;;;;;;;4.05;1.55;;;;;;;24.92;34.37;101701.00;4987935;28;20359;-46
2023/12/17 06:59:07;;;;;;;3.53;1.50;;;;;;;24.93;34.31;101710.06;4986894;28;20045;-45
2023/12/17 07:01:33;;;;;;;4.00;1.70;;;;;;;24.89;34.33;101706.66;4991295;28;20030;-44
2023/12/17 07:03:58;;;;;;;3.80;1.65;;;;;;;24.84;34.40;101707.97;4987673;28;20409;-46
2023/12/17 07:06:23;;;;;;;5.30;1.83;;;;;;;24.83;34.50;101705.66;4987932;28;20478;-46
2023/12/17 07:08:49;;;;;;;4.15;1.67;;;;;;;24.84;34.36;101712.72;4985028;28;20037;-46
2023/12/17 07:11:14;;;;;;;3.67;1.77;;;;;;;24.86;34.40;101718.56;4988496;28;20026;-44
2023/12/17 07:13:39;;;;;;;4.53;1.73;;;;;;;24.86;34.40;101718.56;4991108;28;20026;-47
2023/12/17 07:16:05;;;;;;;4.50;1.60;;;;;;;24.82;34.41;101718.69;4990655;28;20045;-48
2023/12/17 07:18:31;;;;;;;4.05;1.95;;;;;;;24.80;34.34;101723.09;4987547;28;20026;-48
2023/12/17 07:20:56;;;;;;;4.20;1.80;;;;;;;24.75;34.45;101712.63;4989789;28;20038;-46
2023/12/17 07:23:24;;;;;;;5.00;1.90;;;;;;;24.78;33.82;101718.03;4984333;28;20026;-44
2023/12/17 07:25:49;;;;;;;;;;;;;;;24.89;33.70;101712.94;4990820;28;20041;-46
2023/12/17 07:28:14;;;;;;;7.00;2.10;;;;;;;24.79;33.43;101714.03;4990416;28;20325;-47
2023/12/17 07:30:40;;;;;;;8.98;2.15;;;;;;;24.75;33.61;101712.63;4988808;28;20030;-45
2023/12/17 07:33:06;;;;;;;10.27;2.10;;;;;;;24.71;33.19;101712.75;4990946;28;20044;-47
2023/12/17 07:35:31;;;;;;;6.40;2.10;;;;;;;24.67;32.88;101712.84;4986559;28;20498;-46
2023/12/17 07:37:56;;;;;;;5.05;1.90;;;;;;;24.66;32.98;101710.53;4990255;28;20037;-48
2023/12/17 07:40:22;;;;;;;5.55;2.08;;;;;;;24.63;33.16;101712.19;4988506;28;20045;-46
2023/12/17 07:42:47;;;;;;;4.88;2.10;;;;;;;24.63;33.16;101711.41;4988744;28;20034;-45
2023/12/17 07:45:13;;;;;;;9.98;2.30;;;;;;;24.58;32.93;101715.47;4986475;28;20034;-46
2023/12/17 07:47:38;;;;;;;3.95;2.00;;;;;;;24.58;32.81;101698.91;4987229;28;20022;-46
2023/12/17 07:50:04;;;;;;;5.28;2.22;;;;;;;24.56;33.11;101706.13;4988561;28;20026;-46
2023/12/17 07:52:29;;;;;;;6.60;2.10;;;;;;;24.56;32.72;101706.13;4989471;28;20026;-45
2023/12/17 07:54:56;;;;;;;4.82;2.88;;;;;;;24.51;32.71;101707.44;4988582;28;20584;-46
2023/12/17 07:57:21;;;;;;;5.10;2.05;;;;;;;24.52;32.38;101694.41;4993438;28;20023;-45
2023/12/17 07:59:51;;;;;;;4.25;2.10;;;;;;;24.47;32.53;101703.22;4988918;28;20031;-48
2023/12/17 08:02:16;;;;;;;5.28;2.28;;;;;;;24.48;32.40;101702.03;4989416;28;20038;-46
2023/12/17 08:04:42;;;;;;;5.15;2.20;;;;;;;24.48;32.27;101715.81;4989877;28;20064;-46
2023/12/17 08:07:09;;;;;;;4.93;2.30;;;;;;;24.47;31.94;101714.28;4988469;28;20026;-45
2023/12/17 08:09:35;;;;;;;5.15;2.60;;;;;;;24.43;31.92;101713.59;4986775;28;20366;-45
2023/12/17 08:12:00;;;;;;;4.68;2.53;;;;;;;24.41;31.92;101716.03;4985657;28;20089;-46
2023/12/17 08:14:26;;;;;;;4.95;2.42;;;;;;;24.42;31.92;101709.28;4987698;28;20042;-46
2023/12/17 08:16:51;;;;;;;5.80;2.70;;;;;;;24.38;32.08;101718.44;4990718;28;20032;-46
2023/12/17 08:19:16;;;;;;;14.23;2.88;;;;;;;24.46;32.29;101721.00;4990364;28;20026;-48
2023/12/17 08:21:42;;;;;;;8.93;3.47;;;;;;;24.48;32.38;101715.81;4986605;28;20041;-47
2023/12/17 08:24:07;;;;;;;7.15;2.55;;;;;;;24.46;32.34;101719.03;4983516;28;20046;-47
2023/12/17 08:26:32;;;;;;;6.82;2.70;;;;;;;24.46;32.18;101718.25;4989330;28;20026;-46
2023/12/17 08:28:58;;;;;;;8.65;2.42;;;;;;;24.46;32.34;101721.00;4988179;28;20030;-47
2023/12/17 08:31:23;;;;;;;5.53;2.70;;;;;;;24.41;32.37;101714.03;4987837;28;20044;-45
2023/12/17 08:33:52;;;;;;;7.90;2.70;;;;;;;24.53;32.45;101707.00;4986835;28;20026;-48
2023/12/17 08:36:18;;;;;;;6.00;2.78;;;;;;;24.57;32.47;101704.91;4984462;28;20033;-50
2023/12/17 08:38:45;;;;;;;5.25;2.50;;;;;;;24.55;32.40;101710.09;4309056;28;9999835;-52
2023/12/17 08:41:12;;;;;;;4.85;2.70;;;;;;;24.54;32.55;101711.31;4986661;28;20630;-48
2023/12/17 08:43:38;;;;;;;6.53;2.83;;;;;;;24.54;32.31;101705.78;4983990;28;20090;-50
2023/12/17 08:46:03;;;;;;;6.03;2.90;;;;;;;24.54;32.19;101709.31;4987291;28;20379;-45
2023/12/17 08:48:29;;;;;;;5.45;2.80;;;;;;;24.53;32.30;101707.00;4982343;28;20030;-46
2023/12/17 08:50:54;;;;;;;6.70;2.80;;;;;;;24.50;32.29;101700.38;4990330;28;20030;-47
2023/12/17 08:53:22;;;;;;;5.78;2.90;;;;;;;24.49;32.36;101698.03;4986942;28;20029;-51
2023/12/17 08:55:48;;;;;;;6.38;3.10;;;;;;;24.52;32.08;101694.41;4989706;28;20026;-49
2023/12/17 08:58:14;;;;;;;6.07;2.92;;;;;;;24.54;32.09;101703.03;4989186;28;20061;-50
2023/12/17 09:00:39;;;;;;;7.07;2.90;;;;;;;24.62;31.70;101699.59;4983155;28;20080;-48
2023/12/17 09:03:05;;;;;;;6.57;2.92;;;;;;;24.61;31.88;101700.03;4990236;28;20030;-52
2023/12/17 09:05:30;;;;;;;5.60;2.78;;;;;;;24.58;31.83;101690.63;4985211;28;20052;-55
2023/12/17 09:07:56;;;;;;;5.28;2.80;;;;;;;24.50;31.85;101691.31;4987475;28;20080;-51
2023/12/17 09:10:23;;;;;;;6.25;3.25;;;;;;;24.48;32.15;101696.50;4985635;28;20029;-53
2023/12/17 09:12:49;;;;;;;4.85;2.80;;;;;;;24.47;31.83;101697.72;4985048;28;20030;-50
2023/12/17 09:15:15;;;;;;;7.32;3.38;;;;;;;24.49;31.64;101698.03;4983356;28;20045;-53
2023/12/17 09:17:42;;;;;;;5.28;3.03;;;;;;;24.48;32.07;101699.25;4984724;28;20029;-52
2023/12/17 09:20:08;;;;;;;6.07;2.83;;;;;;;24.52;31.79;101695.19;4987155;28;20050;-46
2023/12/17 09:22:33;;;;;;;5.75;3.13;;;;;;;24.75;31.63;101690.53;4987725;28;20058;-49
2023/12/17 09:24:59;;;;;;;6.28;3.00;;;;;;;24.76;31.52;101698.38;4982397;28;20034;-52
2023/12/17 09:27:24;;;;;;;5.72;3.30;;;;;;;24.66;31.54;101696.72;4989126;28;20397;-48
2023/12/17 09:29:49;;;;;;;6.95;3.40;;;;;;;24.58;31.69;101698.91;4987642;28;20500;-50
2023/12/17 09:32:15;;;;;;;5.57;3.38;;;;;;;24.60;31.63;101701.25;4988618;28;20033;-48
2023/12/17 09:34:40;;;;;;;6.15;3.13;;;;;;;24.57;31.51;101704.91;4986160;28;20030;-51
2023/12/17 09:37:05;;;;;;;7.28;3.33;;;;;;;24.55;31.61;101704.56;4984654;28;20106;-48
2023/12/17 09:39:31;;;;;;;5.20;3.15;;;;;;;24.56;31.48;101706.13;4985399;28;20026;-47
2023/12/17 09:41:57;;;;;;;5.63;3.20;;;;;;;24.53;31.60;101705.00;4985620;28;20034;-46
2023/12/17 09:44:22;;;;;;;5.78;3.30;;;;;;;24.57;31.26;101704.91;4986837;28;20022;-47
2023/12/17 09:46:48;;;;;;;5.07;3.22;;;;;;;24.62;30.98;101704.34;4987138;28;20928;-48
2023/12/17 09:49:13;;;;;;;6.60;3.35;;;;;;;24.65;31.20;101700.69;4985788;28;20084;-46
2023/12/17 09:51:39;;;;;;;6.82;3.60;;;;;;;24.68;31.13;101691.53;4986105;28;20093;-45
2023/12/17 09:54:05;;;;;;;5.43;3.38;;;;;;;24.58;30.99;101687.88;4986401;28;20113;-49
2023/12/17 09:56:30;;;;;;;5.65;3.28;;;;;;;24.51;31.25;101679.06;4986114;28;20030;-52
2023/12/17 09:58:56;;;;;;;7.57;3.63;;;;;;;24.47;30.93;101681.16;4986727;28;20080;-52
2023/12/17 10:01:21;;;;;;;6.95;3.70;;;;;;;24.47;31.17;101679.16;4989304;28;20019;-48
2023/12/17 10:03:47;;;;;;;8.43;3.90;;;;;;;24.50;31.42;101677.50;4983994;28;20022;-47
2023/12/17 10:06:12;;;;;;;5.90;3.45;;;;;;;24.57;30.78;101677.31;4985090;28;20421;-48
2023/12/17 10:08:37;;;;;;;5.85;3.53;;;;;;;24.55;31.02;101676.97;4984600;28;20041;-47
2023/12/17 10:11:03;;;;;;;5.50;3.55;;;;;;;24.56;31.17;101675.75;4987218;28;20026;-54
2023/12/17 10:13:28;;;;;;;5.50;3.53;;;;;;;24.53;31.14;101679.38;4985212;28;20034;-47
2023/12/17 10:15:54;;;;;;;5.65;3.40;;;;;;;24.54;31.15;101672.66;4987583;28;20019;-48
2023/12/17 10:18:20;;;;;;;5.60;3.63;;;;;;;24.54;31.09;101667.91;4990566;28;20025;-45
2023/12/17 10:20:46;;;;;;;6.07;3.55;;;;;;;24.49;31.09;101662.16;4988495;28;20030;-45
2023/12/17 10:23:12;;;;;;;5.93;3.60;;;;;;;24.41;31.18;101666.34;4989215;28;20060;-47
2023/12/17 10:25:38;;;;;;;6.00;3.80;;;;;;;24.35;31.11;101664.16;4985901;28;20033;-47
2023/12/17 10:28:04;;;;;;;6.00;3.80;;;;;;;24.40;30.37;101657.28;4986964;28;20025;-46
2023/12/17 10:30:30;;;;;;;5.53;3.63;;;;;;;24.39;30.43;101652.97;4988347;28;20026;-51
2023/12/17 10:32:56;;;;;;;5.87;3.57;;;;;;;24.33;30.45;101646.50;4984736;28;20054;-48
2023/12/17 10:35:25;;;;;;;6.75;3.70;;;;;;;24.33;30.79;101641.75;4984081;28;20014;-48
2023/12/17 10:38:05;;;;;;;5.30;3.40;;;;;;;24.36;30.55;101637.34;4978319;28;20097;-50
2023/12/17 10:40:32;;;;;;;5.93;3.67;;;;;;;24.43;30.50;101647.34;4985847;28;20064;-47
2023/12/17 10:42:58;;;;;;;5.00;3.28;;;;;;;24.45;30.33;101633.88;4987171;28;20034;-50
2023/12/17 10:45:24;;;;;;;6.30;3.55;;;;;;;24.38;30.39;101632.88;4986015;28;20044;-46
2023/12/17 10:47:56;;;;;;;5.72;3.60;;;;;;;24.43;30.63;101623.28;4984875;28;20037;-46
2023/12/17 10:50:21;;;;;;;6.15;3.47;;;;;;;24.36;30.53;101621.53;4982516;28;20034;-46
2023/12/17 10:52:49;;;;;;;5.95;3.40;;;;;;;24.39;30.61;101612.34;4969088;28;20048;-50
2023/12/17 10:55:15;;;;;;;5.57;3.50;;;;;;;24.41;30.81;101611.13;4981847;28;20014;-51
2023/12/17 10:57:45;;;;;;;7.38;3.50;;;;;;;24.41;30.75;101611.13;4987409;28;20093;-49
2023/12/17 11:00:11;;;;;;;6.88;3.58;;;;;;;24.43;31.04;101606.72;4986015;28;20077;-48
2023/12/17 11:02:36;;;;;;;6.40;3.58;;;;;;;24.45;30.83;101604.28;4964562;28;20026;-52
2023/12/17 11:05:01;;;;;;;6.30;3.33;;;;;;;24.51;30.87;101605.28;4981590;28;20031;-49
2023/12/17 11:07:27;;;;;;;5.53;3.42;;;;;;;24.51;30.86;101605.28;4981425;28;20027;-51
2023/12/17 11:09:52;;;;;;;5.80;3.50;;;;;;;24.46;31.02;101596.78;4982528;28;20026;-49
2023/12/17 11:12:21;;;;;;;5.90;3.90;;;;;;;24.48;30.88;101602.66;4985213;28;20032;-51
2023/12/17 11:14:46;;;;;;;5.93;3.80;;;;;;;24.49;30.68;101601.44;4981830;28;20026;-48
2023/12/17 11:17:12;;;;;;;5.50;3.58;;;;;;;24.49;30.74;101595.91;4984098;28;20036;-48